Sanpo Maru No.5 — JL6343 — position and weather

sailwx.info

Track history (hours):
 
Tides and Currents Weather Stations Pressure Air Temp Water Temp Dewpoint Dewpoint Depression Visibility Wind Speed Wind Dir Waves Ship Positions

Sanpo Maru No.5

Last reported at 2015-Jan-31 08:33 UTC. Time now 2015-Jan-31 10:09 UTC.
Position N 35°05' E 139°33'.

Length 71 m; draft 4.5 m.

Type: Ship. MMSI: 431500283.

Date/timePositionNaut miles runAvg speedWind from/ knotsBaromVisibWave heightAir tempDewpointWater temp
2015-Jan-31 08:33N 35°05' E 139°33'1010.5
2015-Jan-31 07:34N 35°10' E 139°44'1010.4
2015-Jan-31 06:33N 35°20' E 139°42'1110.2
2015-Jan-31 05:29N 35°29' E 139°51'8 2.0
2015-Jan-31 01:26N 35°30' E 140°00'6 0.4
2015-Jan-30 09:25N 35°29' E 139°53'910.0
2015-Jan-30 08:33N 35°23' E 139°46'9 9.2
2015-Jan-30 07:33N 35°14' E 139°47'1010.0
2015-Jan-30 06:33N 35°04' E 139°45'10 9.7
2015-Jan-30 05:33N 34°54' E 139°46'11 9.0
2015-Jan-30 04:18N 34°54' E 139°59'  
2015-Jan-28 00:09N 34°55' E 140°01'8 8.9
2015-Jan-27 23:14N 34°52' E 139°52'7 9.6
2015-Jan-27 22:31N 34°52' E 139°44'9 9.1
2015-Jan-27 21:33N 34°51' E 139°33'  
2015-Jan-24 17:15N 34°45' E 139°12'2210.0
2015-Jan-24 15:06N 34°51' E 139°38'611.2
2015-Jan-24 14:32N 34°51' E 139°46'1210.5
2015-Jan-24 13:26N 34°53' E 139°59'  
Track history (hours):
 
Tides and Currents Weather Stations Pressure Air Temp Water Temp Dewpoint Dewpoint Depression Visibility Wind Speed Wind Dir Waves Ship Positions

Sanpo Maru No.5

Last reported at 2015-Jan-31 08:33 UTC. Time now 2015-Jan-31 10:09 UTC.
Position N 35°05' E 139°33'.

Length 71 m; draft 4.5 m.

Type: Ship. MMSI: 431500283.

Date/timePositionNaut miles runAvg speedWind from/ knotsBaromVisibWave heightAir tempDewpointWater temp
2015-Jan-31 08:33N 35°05' E 139°33'1010.5
2015-Jan-31 07:34N 35°10' E 139°44'1010.4
2015-Jan-31 06:33N 35°20' E 139°42'1110.2
2015-Jan-31 05:29N 35°29' E 139°51'8 2.0
2015-Jan-31 01:26N 35°30' E 140°00'6 0.4
2015-Jan-30 09:25N 35°29' E 139°53'910.0
2015-Jan-30 08:33N 35°23' E 139°46'9 9.2
2015-Jan-30 07:33N 35°14' E 139°47'1010.0
2015-Jan-30 06:33N 35°04' E 139°45'10 9.7
2015-Jan-30 05:33N 34°54' E 139°46'11 9.0
2015-Jan-30 04:18N 34°54' E 139°59'  
2015-Jan-28 00:09N 34°55' E 140°01'8 8.9
2015-Jan-27 23:14N 34°52' E 139°52'7 9.6
2015-Jan-27 22:31N 34°52' E 139°44'9 9.1
2015-Jan-27 21:33N 34°51' E 139°33'  
2015-Jan-24 17:15N 34°45' E 139°12'2210.0
2015-Jan-24 15:06N 34°51' E 139°38'611.2
2015-Jan-24 14:32N 34°51' E 139°46'1210.5
2015-Jan-24 13:26N 34°53' E 139°59'  

Dump ship's entire track history